QLK1844 YBBN-YBRK
Flight info
| Callsign | QLK1844 |
|---|---|
| Flight time | 0h 52m |
| Altitude | 32000 |
| Route | BN Q67 LOAFA Q64 OLDIB V308 RK |
| Aircraft | E190/M-SDE3GILORVW/S |
Departure
| Time | 2026-05-04 00:10 |
|---|---|
| Airport | Brisbane International Airport (YBBN) |
Arrival
| Time | 2026-05-04 01:02 |
|---|---|
| Airport | Rockhampton Airport (YBRK) |
| Time | Latitude | Longitude | Altitude | Speed | Heading |
|---|---|---|---|---|---|
| 2026-05-04 00:10 | -27.17515 | 153.18546 | 17132 ft | 389 kts | 19° |
| 2026-05-04 00:10 | -27.14948 | 153.19524 | 17617 ft | 390 kts | 15° |
| 2026-05-04 00:10 | -27.12359 | 153.20480 | 18094 ft | 393 kts | 14° |
| 2026-05-04 00:10 | -27.09747 | 153.21401 | 18529 ft | 395 kts | 14° |
| 2026-05-04 00:11 | -27.07118 | 153.22332 | 18923 ft | 397 kts | 13° |
| 2026-05-04 00:11 | -27.04435 | 153.23080 | 19305 ft | 397 kts | 6° |
| 2026-05-04 00:11 | -27.01710 | 153.23570 | 19705 ft | 398 kts | 4° |
| 2026-05-04 00:11 | -26.98963 | 153.23920 | 20100 ft | 397 kts | 358° |
| 2026-05-04 00:12 | -26.96234 | 153.24011 | 20494 ft | 399 kts | 358° |
| 2026-05-04 00:12 | -26.93455 | 153.24097 | 20885 ft | 400 kts | 356° |
| 2026-05-04 00:12 | -26.90661 | 153.24158 | 21271 ft | 403 kts | 356° |
| 2026-05-04 00:12 | -26.87851 | 153.24219 | 21638 ft | 405 kts | 356° |
| 2026-05-04 00:13 | -26.85030 | 153.24281 | 22000 ft | 407 kts | 356° |
| 2026-05-04 00:13 | -26.82197 | 153.24341 | 22339 ft | 408 kts | 356° |
| 2026-05-04 00:13 | -26.79350 | 153.24404 | 22684 ft | 410 kts | 356° |
| 2026-05-04 00:13 | -26.76487 | 153.24466 | 23010 ft | 412 kts | 355° |
| 2026-05-04 00:14 | -26.73650 | 153.24526 | 23312 ft | 414 kts | 355° |
| 2026-05-04 00:14 | -26.70793 | 153.24348 | 23587 ft | 410 kts | 347° |
| 2026-05-04 00:14 | -26.67975 | 153.23838 | 23859 ft | 410 kts | 344° |
| 2026-05-04 00:14 | -26.65187 | 153.23199 | 24104 ft | 408 kts | 340° |
| 2026-05-04 00:15 | -26.62464 | 153.22297 | 24338 ft | 409 kts | 339° |
| 2026-05-04 00:15 | -26.59738 | 153.21382 | 24570 ft | 409 kts | 338° |
| 2026-05-04 00:15 | -26.57012 | 153.20440 | 24801 ft | 411 kts | 338° |
| 2026-05-04 00:15 | -26.54279 | 153.19494 | 25000 ft | 412 kts | 338° |
| 2026-05-04 00:16 | -26.51534 | 153.18546 | 25216 ft | 414 kts | 338° |
| 2026-05-04 00:16 | -26.48816 | 153.17605 | 25437 ft | 415 kts | 338° |
| 2026-05-04 00:16 | -26.46058 | 153.16654 | 25642 ft | 416 kts | 338° |
| 2026-05-04 00:16 | -26.43289 | 153.15697 | 25864 ft | 417 kts | 338° |
| 2026-05-04 00:17 | -26.40512 | 153.14739 | 26073 ft | 418 kts | 338° |
| 2026-05-04 00:17 | -26.37727 | 153.13779 | 26277 ft | 420 kts | 338° |
| 2026-05-04 00:17 | -26.34933 | 153.12815 | 26471 ft | 421 kts | 338° |
| 2026-05-04 00:17 | -26.32134 | 153.11852 | 26686 ft | 421 kts | 337° |
| 2026-05-04 00:18 | -26.29417 | 153.10663 | 26868 ft | 417 kts | 329° |
| 2026-05-04 00:18 | -26.26846 | 153.09180 | 27068 ft | 416 kts | 327° |
| 2026-05-04 00:18 | -26.24433 | 153.07491 | 27210 ft | 414 kts | 320° |
| 2026-05-04 00:18 | -26.22092 | 153.05620 | 27398 ft | 415 kts | 321° |
| 2026-05-04 00:19 | -26.19757 | 153.03722 | 27566 ft | 416 kts | 320° |
| 2026-05-04 00:19 | -26.17420 | 153.01818 | 27739 ft | 417 kts | 320° |
| 2026-05-04 00:19 | -26.15080 | 152.99903 | 27912 ft | 418 kts | 320° |
| 2026-05-04 00:19 | -26.12749 | 152.97967 | 28077 ft | 419 kts | 320° |
| 2026-05-04 00:20 | -26.10383 | 152.96074 | 28255 ft | 419 kts | 320° |
| 2026-05-04 00:20 | -26.08023 | 152.94171 | 28484 ft | 419 kts | 320° |
| 2026-05-04 00:20 | -26.05695 | 152.92303 | 28706 ft | 418 kts | 320° |
| 2026-05-04 00:20 | -26.03336 | 152.90411 | 28923 ft | 417 kts | 320° |
| 2026-05-04 00:21 | -26.00985 | 152.88524 | 29179 ft | 417 kts | 320° |
| 2026-05-04 00:21 | -25.98636 | 152.86641 | 29427 ft | 416 kts | 320° |
| 2026-05-04 00:21 | -25.96296 | 152.84765 | 29676 ft | 415 kts | 320° |
| 2026-05-04 00:21 | -25.93977 | 152.82907 | 29894 ft | 414 kts | 320° |
| 2026-05-04 00:22 | -25.91623 | 152.81019 | 30110 ft | 413 kts | 320° |
| 2026-05-04 00:22 | -25.89290 | 152.79154 | 30313 ft | 413 kts | 320° |
| 2026-05-04 00:22 | -25.86961 | 152.77290 | 30493 ft | 412 kts | 320° |
| 2026-05-04 00:22 | -25.84667 | 152.75455 | 30667 ft | 412 kts | 320° |
| 2026-05-04 00:23 | -25.82343 | 152.73598 | 30845 ft | 412 kts | 320° |
| 2026-05-04 00:23 | -25.80019 | 152.71740 | 31009 ft | 411 kts | 320° |
| 2026-05-04 00:23 | -25.77699 | 152.69887 | 31202 ft | 411 kts | 320° |
| 2026-05-04 00:23 | -25.75380 | 152.68036 | 31372 ft | 411 kts | 320° |
| 2026-05-04 00:24 | -25.73062 | 152.66186 | 31543 ft | 410 kts | 320° |
| 2026-05-04 00:24 | -25.70747 | 152.64340 | 31728 ft | 410 kts | 320° |
| 2026-05-04 00:24 | -25.68433 | 152.62496 | 31908 ft | 409 kts | 319° |
| 2026-05-04 00:24 | -25.66169 | 152.60697 | 32004 ft | 389 kts | 319° |
| 2026-05-04 00:25 | -25.61853 | 152.57253 | 32112 ft | 389 kts | 319° |
| 2026-05-04 00:25 | -25.57413 | 152.53723 | 32141 ft | 397 kts | 319° |
| 2026-05-04 00:26 | -25.52872 | 152.50115 | 32142 ft | 406 kts | 320° |
| 2026-05-04 00:26 | -25.48249 | 152.46447 | 32137 ft | 408 kts | 320° |
| 2026-05-04 00:27 | -25.43684 | 152.42825 | 32129 ft | 407 kts | 320° |
| 2026-05-04 00:27 | -25.39082 | 152.39178 | 32132 ft | 407 kts | 320° |
| 2026-05-04 00:28 | -25.34482 | 152.35536 | 32129 ft | 407 kts | 320° |
| 2026-05-04 00:28 | -25.29879 | 152.31896 | 32127 ft | 407 kts | 320° |
| 2026-05-04 00:29 | -25.25306 | 152.28280 | 32122 ft | 408 kts | 320° |
| 2026-05-04 00:29 | -25.20684 | 152.24633 | 32131 ft | 408 kts | 320° |
| 2026-05-04 00:30 | -25.16070 | 152.20996 | 32132 ft | 408 kts | 320° |
| 2026-05-04 00:30 | -25.11451 | 152.17356 | 32126 ft | 408 kts | 320° |
| 2026-05-04 00:31 | -25.06834 | 152.13719 | 32140 ft | 408 kts | 319° |
| 2026-05-04 00:31 | -25.02482 | 152.09816 | 32126 ft | 404 kts | 313° |
| 2026-05-04 00:32 | -24.98534 | 152.05429 | 32131 ft | 403 kts | 310° |
| 2026-05-04 00:32 | -24.94646 | 152.00983 | 32121 ft | 402 kts | 310° |
| 2026-05-04 00:33 | -24.88845 | 151.94348 | 32131 ft | 403 kts | 310° |
| 2026-05-04 00:34 | -24.84960 | 151.89912 | 32124 ft | 402 kts | 310° |
| 2026-05-04 00:34 | -24.81069 | 151.85477 | 32127 ft | 403 kts | 310° |
| 2026-05-04 00:35 | -24.77176 | 151.81043 | 32127 ft | 403 kts | 310° |
| 2026-05-04 00:35 | -24.75232 | 151.78827 | 32130 ft | 403 kts | 310° |
| 2026-05-04 00:37 | -24.61546 | 151.63278 | 32124 ft | 403 kts | 310° |
| 2026-05-04 00:37 | -24.57658 | 151.58869 | 32110 ft | 401 kts | 311° |
| 2026-05-04 00:38 | -24.53746 | 151.54459 | 32195 ft | 405 kts | 311° |
| 2026-05-04 00:38 | -24.49858 | 151.50033 | 32136 ft | 402 kts | 311° |
| 2026-05-04 00:39 | -24.45950 | 151.45619 | 32132 ft | 403 kts | 311° |
| 2026-05-04 00:39 | -24.42039 | 151.41206 | 32142 ft | 404 kts | 311° |
| 2026-05-04 00:40 | -24.38127 | 151.36789 | 32122 ft | 403 kts | 311° |
| 2026-05-04 00:40 | -24.34242 | 151.32407 | 32118 ft | 403 kts | 311° |
| 2026-05-04 00:41 | -24.30332 | 151.28006 | 32120 ft | 403 kts | 311° |
| 2026-05-04 00:41 | -24.26439 | 151.23590 | 32109 ft | 403 kts | 311° |
| 2026-05-04 00:42 | -24.22507 | 151.19212 | 32111 ft | 403 kts | 311° |
| 2026-05-04 00:42 | -24.18578 | 151.14798 | 32124 ft | 406 kts | 311° |
| 2026-05-04 00:43 | -24.14668 | 151.10408 | 32118 ft | 405 kts | 311° |
| 2026-05-04 00:43 | -24.10731 | 151.05993 | 32115 ft | 405 kts | 311° |
| 2026-05-04 00:44 | -24.06756 | 151.01654 | 31244 ft | 409 kts | 314° |
| 2026-05-04 00:44 | -24.04550 | 150.99582 | 29803 ft | 425 kts | 320° |
| 2026-05-04 00:44 | -24.02161 | 150.97640 | 28506 ft | 430 kts | 320° |
| 2026-05-04 00:44 | -23.99761 | 150.95718 | 27595 ft | 426 kts | 321° |
| 2026-05-04 00:45 | -23.97409 | 150.93848 | 26760 ft | 420 kts | 321° |
| 2026-05-04 00:45 | -23.95059 | 150.91980 | 25931 ft | 416 kts | 321° |
| 2026-05-04 00:45 | -23.92729 | 150.90130 | 25127 ft | 411 kts | 321° |
| 2026-05-04 00:45 | -23.90426 | 150.88305 | 24351 ft | 407 kts | 322° |
| 2026-05-04 00:46 | -23.88010 | 150.86698 | 23552 ft | 406 kts | 329° |
| 2026-05-04 00:46 | -23.85501 | 150.85306 | 22662 ft | 403 kts | 331° |
| 2026-05-04 00:46 | -23.82966 | 150.84051 | 22015 ft | 396 kts | 336° |
| 2026-05-04 00:46 | -23.80418 | 150.83021 | 21528 ft | 385 kts | 336° |
| 2026-05-04 00:47 | -23.77979 | 150.82046 | 20780 ft | 373 kts | 337° |
| 2026-05-04 00:47 | -23.75564 | 150.81101 | 19956 ft | 365 kts | 337° |
| 2026-05-04 00:47 | -23.73198 | 150.80176 | 19101 ft | 358 kts | 338° |
| 2026-05-04 00:47 | -23.70866 | 150.79266 | 18192 ft | 355 kts | 338° |
| 2026-05-04 00:48 | -23.68547 | 150.78360 | 17329 ft | 352 kts | 338° |
| 2026-05-04 00:48 | -23.66255 | 150.77467 | 16525 ft | 348 kts | 338° |
| 2026-05-04 00:48 | -23.63981 | 150.76580 | 15738 ft | 346 kts | 338° |
| 2026-05-04 00:48 | -23.61725 | 150.75699 | 14969 ft | 343 kts | 339° |
| 2026-05-04 00:49 | -23.59512 | 150.74838 | 14258 ft | 341 kts | 339° |
| 2026-05-04 00:49 | -23.57287 | 150.73969 | 13500 ft | 338 kts | 339° |
| 2026-05-04 00:49 | -23.55079 | 150.73108 | 12731 ft | 335 kts | 339° |
| 2026-05-04 00:49 | -23.52896 | 150.72259 | 12010 ft | 332 kts | 340° |
| 2026-05-04 00:50 | -23.50726 | 150.71414 | 11237 ft | 331 kts | 340° |
| 2026-05-04 00:50 | -23.48589 | 150.70580 | 10768 ft | 319 kts | 341° |
| 2026-05-04 00:50 | -23.46547 | 150.69788 | 10361 ft | 305 kts | 341° |
| 2026-05-04 00:50 | -23.44599 | 150.69030 | 9949 ft | 294 kts | 342° |
| 2026-05-04 00:51 | -23.42729 | 150.68305 | 9446 ft | 285 kts | 341° |
| 2026-05-04 00:51 | -23.40874 | 150.67588 | 8781 ft | 284 kts | 341° |
| 2026-05-04 00:51 | -23.39005 | 150.66862 | 8056 ft | 287 kts | 341° |
| 2026-05-04 00:51 | -23.37135 | 150.66130 | 7482 ft | 284 kts | 341° |
| 2026-05-04 00:52 | -23.35273 | 150.65405 | 6856 ft | 284 kts | 341° |
| 2026-05-04 00:52 | -23.33410 | 150.64687 | 6236 ft | 285 kts | 341° |
| 2026-05-04 00:52 | -23.31553 | 150.63962 | 5815 ft | 281 kts | 341° |
| 2026-05-04 00:52 | -23.29722 | 150.63250 | 5382 ft | 278 kts | 341° |
| 2026-05-04 00:53 | -23.27940 | 150.62551 | 4981 ft | 273 kts | 341° |
| 2026-05-04 00:53 | -23.26140 | 150.61863 | 4434 ft | 275 kts | 342° |
| 2026-05-04 00:53 | -23.24362 | 150.61172 | 4284 ft | 266 kts | 341° |
| 2026-05-04 00:53 | -23.22657 | 150.60514 | 4175 ft | 255 kts | 341° |
| 2026-05-04 00:54 | -23.21012 | 150.59875 | 3911 ft | 248 kts | 342° |
| 2026-05-04 00:54 | -23.19421 | 150.59170 | 3637 ft | 254 kts | 329° |
| 2026-05-04 00:54 | -23.18236 | 150.57772 | 3566 ft | 246 kts | 295° |
| 2026-05-04 00:54 | -23.17950 | 150.56042 | 3503 ft | 229 kts | 259° |
| 2026-05-04 00:55 | -23.18598 | 150.54556 | 3480 ft | 213 kts | 222° |
| 2026-05-04 00:55 | -23.19602 | 150.53367 | 3494 ft | 217 kts | 237° |
| 2026-05-04 00:55 | -23.19925 | 150.51791 | 3514 ft | 224 kts | 274° |
| 2026-05-04 00:55 | -23.19588 | 150.50124 | 3525 ft | 227 kts | 283° |
| 2026-05-04 00:56 | -23.19164 | 150.48479 | 3566 ft | 226 kts | 284° |
| 2026-05-04 00:56 | -23.18712 | 150.46839 | 3587 ft | 227 kts | 285° |
| 2026-05-04 00:56 | -23.18316 | 150.45185 | 3556 ft | 225 kts | 279° |
| 2026-05-04 00:56 | -23.18357 | 150.43551 | 3515 ft | 209 kts | 252° |
| 2026-05-04 00:57 | -23.18911 | 150.42169 | 3378 ft | 192 kts | 231° |
| 2026-05-04 00:57 | -23.19763 | 150.41127 | 3196 ft | 181 kts | 220° |
| 2026-05-04 00:57 | -23.20711 | 150.40345 | 3063 ft | 167 kts | 202° |
| 2026-05-04 00:57 | -23.21794 | 150.40021 | 3071 ft | 156 kts | 180° |
| 2026-05-04 00:58 | -23.22795 | 150.40226 | 2872 ft | 144 kts | 151° |
| 2026-05-04 00:58 | -23.23608 | 150.40725 | 2738 ft | 126 kts | 147° |
| 2026-05-04 00:58 | -23.24411 | 150.41208 | 2804 ft | 133 kts | 150° |
| 2026-05-04 00:58 | -23.25256 | 150.41674 | 2878 ft | 138 kts | 151° |
| 2026-05-04 00:59 | -23.26113 | 150.42142 | 2792 ft | 136 kts | 151° |
| 2026-05-04 00:59 | -23.26978 | 150.42569 | 2475 ft | 137 kts | 154° |
| 2026-05-04 00:59 | -23.27864 | 150.42974 | 2175 ft | 136 kts | 154° |
| 2026-05-04 00:59 | -23.28718 | 150.43356 | 1876 ft | 133 kts | 155° |
| 2026-05-04 01:00 | -23.29563 | 150.43724 | 1545 ft | 129 kts | 154° |
| 2026-05-04 01:00 | -23.30402 | 150.44106 | 1366 ft | 131 kts | 155° |
| 2026-05-04 01:00 | -23.31250 | 150.44514 | 1271 ft | 134 kts | 154° |
| 2026-05-04 01:00 | -23.32098 | 150.44906 | 1128 ft | 134 kts | 156° |
| 2026-05-04 01:01 | -23.32958 | 150.45293 | 955 ft | 135 kts | 155° |
| 2026-05-04 01:01 | -23.33833 | 150.45690 | 791 ft | 134 kts | 155° |
| 2026-05-04 01:01 | -23.34687 | 150.46074 | 613 ft | 137 kts | 156° |
| 2026-05-04 01:01 | -23.35552 | 150.46458 | 407 ft | 133 kts | 156° |
| 2026-05-04 01:02 | -23.36405 | 150.46830 | 209 ft | 136 kts | 156° |
| 2026-05-04 01:02 | -23.37257 | 150.47205 | 45 ft | 120 kts | 152° |
| 2026-05-04 01:02 | -23.37884 | 150.47489 | 37 ft | 82 kts | 158° |
| 2026-05-04 01:02 | -23.38284 | 150.47664 | 36 ft | 43 kts | 158° |
| 2026-05-04 01:03 | -23.38533 | 150.47772 | 37 ft | 37 kts | 158° |
| 2026-05-04 01:03 | -23.38708 | 150.47870 | 37 ft | 24 kts | 118° |
| 2026-05-04 01:03 | -23.38642 | 150.48007 | 36 ft | 20 kts | 13° |
| 2026-05-04 01:03 | -23.38523 | 150.47958 | 35 ft | 19 kts | 335° |
| 2026-05-04 01:04 | -23.38403 | 150.47906 | 37 ft | 19 kts | 339° |
| 2026-05-04 01:04 | -23.38278 | 150.47852 | 37 ft | 20 kts | 338° |
| 2026-05-04 01:04 | -23.38143 | 150.47792 | 37 ft | 22 kts | 338° |
| 2026-05-04 01:04 | -23.37992 | 150.47725 | 38 ft | 25 kts | 338° |
| 2026-05-04 01:05 | -23.37836 | 150.47681 | 39 ft | 11 kts | 29° |
| 2026-05-04 01:05 | -23.37823 | 150.47702 | 37 ft | 1 kts | 81° |
| 2026-05-04 01:05 | -23.37828 | 150.47719 | 39 ft | 4 kts | 104° |
| 2026-05-04 01:05 | -23.37835 | 150.47752 | 39 ft | 5 kts | 104° |
| 2026-05-04 01:06 | -23.37838 | 150.47763 | 39 ft | 0 kts | 104° |